Terminal Aerodrome Forecast
Issued by NWS Wilmington, OH

Home | Current Version | Previous Version | Text Only | Print | Product List | Glossary On
Versions: 1 2 3 4 5 6 7 8 9 10 11 12 13 14 15 16 17 18 19 20 21 22 23 24 25 26 27 28
000
FTUS41 KILN 291004 AAA
TAFDAY
TAF AMD
KDAY 291004Z 2910/3006 00000KT P6SM SKC
     FM291300 24005KT P6SM SCT035 BKN120
     FM291800 28009KT P6SM VCTS BKN040CB
      TEMPO 2919/2921 4SM -TSRA BKN035CB
     FM292300 30006KT P6SM SCT120=

USA.gov is the U.S. government's official web portal to all federal, state and local government web resources and services.